Time;durP1;ratioP1;P1;durP2;ratioP2;P2;SDS_P1;SDS_P2;PMS_P1;PMS_P2;Temp;Humidity;BMP_temperature;BMP_pressure;BME280_temperature;BME280_humidity;BME280_pressure;Samples;Min_cycle;Max_cycle;Signal;HPM_P1;HPM_P2
2024/02/12 00:01:58;;;;;;;1.70;0.70;;;7.90;3.60;;;;;;5052823;28;20959;-68
2024/02/12 00:04:28;;;;;;;1.53;0.63;;;8.00;3.00;;;;;;5051785;28;20417;-68
2024/02/12 00:06:57;;;;;;;1.50;0.60;;;8.00;2.50;;;;;;5054197;28;20471;-68
2024/02/12 00:09:26;;;;;;;1.80;0.50;;;8.00;2.90;;;;;;5052191;28;20423;-68
2024/02/12 00:11:54;;;;;;;1.90;0.63;;;8.10;2.30;;;;;;5053151;28;20417;-68
2024/02/12 00:14:22;;;;;;;1.50;0.50;;;8.00;2.30;;;;;;5052880;28;20435;-68
2024/02/12 00:16:47;;;;;;;1.60;0.57;;;8.00;2.30;;;;;;5052885;28;20432;-69
2024/02/12 00:19:13;;;;;;;1.80;0.77;;;8.00;2.40;;;;;;5053451;28;21002;-68
2024/02/12 00:21:39;;;;;;;2.23;0.80;;;8.10;2.50;;;;;;5053386;28;20178;-68
2024/02/12 00:24:06;;;;;;;1.50;0.53;;;8.10;2.40;;;;;;5053384;28;20405;-69
2024/02/12 00:26:32;;;;;;;2.53;0.70;;;8.00;1.80;;;;;;5053986;28;20229;-67
2024/02/12 00:28:58;;;;;;;1.50;0.60;;;8.00;2.20;;;;;;5054424;28;20799;-68
2024/02/12 00:31:26;;;;;;;1.60;0.60;;;8.10;1.70;;;;;;5055281;28;20417;-70
2024/02/12 00:33:54;;;;;;;1.70;0.57;;;8.10;1.80;;;;;;5054903;28;20411;-70
2024/02/12 00:36:20;;;;;;;1.90;0.57;;;8.10;2.10;;;;;;5053279;28;20845;-68
2024/02/12 00:38:47;;;;;;;2.00;0.83;;;8.10;2.20;;;;;;5054220;28;20946;-68
2024/02/12 00:41:14;;;;;;;2.47;0.70;;;8.00;2.30;;;;;;5053725;28;20465;-67
2024/02/12 00:43:43;;;;;;;1.40;0.50;;;8.00;2.30;;;;;;5053732;28;20480;-69
2024/02/12 00:46:11;;;;;;;1.80;0.70;;;8.00;1.80;;;;;;5053613;28;20987;-68
2024/02/12 00:48:38;;;;;;;1.50;0.50;;;8.00;1.60;;;;;;5052537;28;20431;-68
2024/02/12 00:51:04;;;;;;;2.07;0.67;;;8.00;2.00;;;;;;5053287;28;20458;-69
2024/02/12 00:53:29;;;;;;;1.67;0.70;;;8.00;1.70;;;;;;5053332;28;20417;-68
2024/02/12 00:55:58;;;;;;;1.70;0.70;;;7.90;2.00;;;;;;5054072;28;20443;-69
2024/02/12 00:58:24;;;;;;;1.67;0.60;;;7.80;2.80;;;;;;5052287;28;20189;-68
2024/02/12 01:00:50;;;;;;;6.00;0.70;;;7.80;2.30;;;;;;5051900;28;20467;-68
2024/02/12 01:03:16;;;;;;;1.47;0.53;;;7.90;2.30;;;;;;5051734;28;20170;-68
2024/02/12 01:05:43;;;;;;;1.40;0.47;;;7.80;2.40;;;;;;5052185;28;20178;-68
2024/02/12 01:08:09;;;;;;;1.50;0.53;;;7.80;3.10;;;;;;5051860;28;20464;-68
2024/02/12 01:10:35;;;;;;;1.50;0.60;;;7.80;2.70;;;;;;5053590;28;20924;-67
2024/02/12 01:13:01;;;;;;;1.40;0.40;;;7.80;2.50;;;;;;5053401;28;20189;-68
2024/02/12 01:15:27;;;;;;;1.40;0.50;;;7.80;2.70;;;;;;5054534;28;20465;-69
2024/02/12 01:17:53;;;;;;;1.40;0.50;;;7.80;2.90;;;;;;5052864;28;20193;-68
2024/02/12 01:20:22;;;;;;;1.40;0.50;;;7.80;2.80;;;;;;5052293;28;20229;-69
2024/02/12 01:22:49;;;;;;;1.47;0.50;;;7.90;2.60;;;;;;5052293;28;20409;-69
2024/02/12 01:25:15;;;;;;;1.60;0.60;;;7.90;2.80;;;;;;5053627;28;20911;-67
2024/02/12 01:27:41;;;;;;;1.90;0.50;;;7.90;1.90;;;;;;5054123;28;20508;-68
2024/02/12 01:30:08;;;;;;;1.77;0.50;;;7.90;1.90;;;;;;5057244;28;20464;-68
2024/02/12 01:32:34;;;;;;;1.73;0.60;;;7.80;1.70;;;;;;5057515;28;20184;-68
2024/02/12 01:34:59;;;;;;;1.70;0.57;;;7.90;1.80;;;;;;5057710;28;20424;-68
2024/02/12 01:37:27;;;;;;;1.50;0.50;;;7.90;2.00;;;;;;5056663;28;20265;-69
2024/02/12 01:39:56;;;;;;;4.03;0.70;;;7.80;2.10;;;;;;5054706;28;20252;-68
2024/02/12 01:42:21;;;;;;;1.50;0.53;;;7.80;1.80;;;;;;5055812;28;20496;-68
2024/02/12 01:45:15;;;;;;;1.40;0.40;;;7.80;2.40;;;;;;5055723;28;20409;-68
2024/02/12 01:47:43;;;;;;;1.70;0.63;;;7.80;2.80;;;;;;5138062;22;20670;-69
2024/02/12 01:50:13;;;;;;;1.77;0.60;;;7.80;2.10;;;;;;5014484;28;20425;-69
2024/02/12 01:52:40;;;;;;;1.70;0.70;;;7.70;2.60;;;;;;5014378;28;20403;-69
2024/02/12 01:55:07;;;;;;;1.50;0.60;;;7.70;2.50;;;;;;5014548;28;20422;-69
2024/02/12 01:57:36;;;;;;;1.80;0.63;;;7.60;3.10;;;;;;5014135;28;20824;-69
2024/02/12 02:00:05;;;;;;;1.80;0.50;;;7.50;3.60;;;;;;5013988;28;20833;-67
2024/02/12 02:02:30;;;;;;;2.10;0.50;;;7.40;4.30;;;;;;5014265;28;20504;-68
2024/02/12 02:04:58;;;;;;;1.40;0.50;;;7.30;4.30;;;;;;5014189;28;20502;-68
2024/02/12 02:07:24;;;;;;;1.87;0.60;;;7.30;4.80;;;;;;5014032;28;20201;-68
2024/02/12 02:09:50;;;;;;;1.87;0.60;;;7.40;5.50;;;;;;5013802;28;20775;-68
2024/02/12 02:12:16;;;;;;;1.43;0.47;;;7.50;5.20;;;;;;5013918;28;20457;-68
2024/02/12 02:14:43;;;;;;;1.43;0.50;;;7.60;4.50;;;;;;5014160;28;20464;-68
2024/02/12 02:17:09;;;;;;;1.50;0.57;;;7.60;4.00;;;;;;5013793;28;20948;-68
2024/02/12 02:19:35;;;;;;;1.50;0.60;;;7.60;4.50;;;;;;5013915;28;20535;-68
2024/02/12 02:22:02;;;;;;;1.50;0.63;;;7.70;3.60;;;;;;5013813;28;20512;-68
2024/02/12 02:24:28;;;;;;;1.60;0.57;;;7.80;3.40;;;;;;5013756;28;20259;-68
2024/02/12 02:26:54;;;;;;;1.60;0.60;;;7.80;3.60;;;;;;5013722;28;20465;-69
2024/02/12 02:29:21;;;;;;;1.60;0.60;;;7.80;3.10;;;;;;5013445;28;20254;-69
2024/02/12 02:31:46;;;;;;;1.70;0.60;;;7.80;3.40;;;;;;5013605;28;20918;-68
2024/02/12 02:34:12;;;;;;;1.80;0.57;;;7.70;3.70;;;;;;5013604;28;20473;-69
2024/02/12 02:36:37;;;;;;;1.50;0.63;;;7.70;3.90;;;;;;5013463;28;20639;-68
2024/02/12 02:39:04;;;;;;;1.60;0.60;;;7.70;3.70;;;;;;5013456;28;20179;-68
2024/02/12 02:41:30;;;;;;;1.50;0.40;;;7.70;4.00;;;;;;5013216;28;20198;-68
2024/02/12 02:43:56;;;;;;;1.50;0.63;;;7.70;4.50;;;;;;5013344;28;20468;-68
2024/02/12 02:46:27;;;;;;;1.40;0.50;;;7.70;4.50;;;;;;5013400;28;20178;-68
2024/02/12 02:48:55;;;;;;;1.70;0.47;;;7.70;4.10;;;;;;5013033;28;20198;-68
2024/02/12 02:51:27;;;;;;;1.60;0.50;;;7.70;4.10;;;;;;5013108;28;20428;-68
2024/02/12 02:53:54;;;;;;;1.63;0.53;;;7.70;4.50;;;;;;5013150;28;20497;-69
2024/02/12 02:56:20;;;;;;;1.60;0.60;;;7.70;4.50;;;;;;5013135;28;20786;-69
2024/02/12 02:58:47;;;;;;;1.60;0.60;;;7.70;4.70;;;;;;5012985;28;20724;-69
2024/02/12 03:01:13;;;;;;;2.37;0.80;;;7.70;4.50;;;;;;5013063;28;20469;-68
2024/02/12 03:03:39;;;;;;;2.43;0.80;;;7.70;5.10;;;;;;4995733;28;20438;-69
2024/02/12 03:06:05;;;;;;;1.40;0.50;;;7.70;4.50;;;;;;5013353;28;20797;-68
2024/02/12 03:08:34;;;;;;;3.80;0.77;;;7.70;4.50;;;;;;5012946;28;20226;-68
2024/02/12 03:11:04;;;;;;;1.50;0.60;;;7.60;5.00;;;;;;5013152;28;20855;-68
2024/02/12 03:13:30;;;;;;;1.60;0.63;;;7.70;4.80;;;;;;5012955;28;20417;-69
2024/02/12 03:15:56;;;;;;;2.13;0.50;;;7.60;5.40;;;;;;5012929;28;20567;-69
2024/02/12 03:18:22;;;;;;;1.50;0.63;;;7.70;5.00;;;;;;5012702;28;20195;-69
2024/02/12 03:20:49;;;;;;;1.50;0.60;;;7.60;5.20;;;;;;5013045;28;20458;-69
2024/02/12 03:23:14;;;;;;;3.10;0.60;;;7.50;5.60;;;;;;5013062;28;20173;-68
2024/02/12 03:25:40;;;;;;;2.00;0.70;;;7.50;6.40;;;;;;5012713;28;20426;-68
2024/02/12 03:28:06;;;;;;;1.50;0.50;;;7.50;6.10;;;;;;5012647;28;20278;-68
2024/02/12 03:30:31;;;;;;;1.77;0.70;;;7.50;6.60;;;;;;5012690;28;20494;-68
2024/02/12 03:33:02;;;;;;;1.70;0.60;;;7.60;6.90;;;;;;5012818;28;20274;-69
2024/02/12 03:35:27;;;;;;;1.70;0.80;;;7.60;7.00;;;;;;4994528;28;20206;-69
2024/02/12 03:37:53;;;;;;;1.50;0.57;;;7.50;7.10;;;;;;5012131;28;20628;-69
2024/02/12 03:40:18;;;;;;;1.43;0.53;;;7.50;7.10;;;;;;5012201;28;20206;-69
2024/02/12 03:42:44;;;;;;;1.50;0.47;;;7.40;7.80;;;;;;5011900;28;20175;-69
2024/02/12 03:45:13;;;;;;;2.67;0.60;;;7.40;7.80;;;;;;5012083;28;20236;-69
2024/02/12 03:47:39;;;;;;;2.37;0.80;;;7.30;8.40;;;;;;5011171;28;20208;-68
2024/02/12 04:01:22;;;;;;;1.60;0.70;;;7.10;9.10;;;;;;5012264;28;20464;-68
2024/02/12 04:03:49;;;;;;;1.80;0.60;;;7.10;9.70;;;;;;4994263;28;20433;-68
2024/02/12 04:06:15;;;;;;;4.43;0.80;;;7.10;9.70;;;;;;5011867;28;20657;-70
2024/02/12 04:08:42;;;;;;;3.10;0.80;;;7.10;9.60;;;;;;5011608;28;20482;-68
2024/02/12 04:11:13;;;;;;;1.60;0.70;;;7.10;9.70;;;;;;4994167;28;20425;-69
2024/02/12 04:13:40;;;;;;;2.53;0.83;;;7.20;10.10;;;;;;4994354;28;20437;-68
2024/02/12 04:16:09;;;;;;;1.60;0.53;;;7.20;10.40;;;;;;5011873;28;20807;-68
2024/02/12 04:18:34;;;;;;;2.00;0.70;;;7.30;10.80;;;;;;5011951;28;20450;-68
2024/02/12 04:21:08;;;;;;;2.13;0.60;;;7.30;11.30;;;;;;5011815;28;20469;-68
2024/02/12 04:23:40;;;;;;;1.77;0.80;;;7.30;11.40;;;;;;5012174;28;20697;-68
2024/02/12 04:26:08;;;;;;;1.60;0.70;;;7.30;12.10;;;;;;5012669;28;20910;-70
2024/02/12 04:28:34;;;;;;;1.80;0.80;;;7.40;11.80;;;;;;5012050;28;20948;-70
2024/02/12 04:31:00;;;;;;;3.30;0.60;;;7.40;12.10;;;;;;5011983;28;20429;-68
2024/02/12 04:33:25;;;;;;;1.90;0.73;;;7.30;13.10;;;;;;4994263;28;20187;-69
2024/02/12 04:35:51;;;;;;;2.57;0.87;;;7.30;14.10;;;;;;5011841;28;20504;-69
2024/02/12 04:38:17;;;;;;;2.37;0.97;;;7.30;14.30;;;;;;5011281;28;20544;-70
2024/02/12 04:40:42;;;;;;;2.00;0.83;;;7.20;16.00;;;;;;5011634;28;20206;-70
2024/02/12 04:43:09;;;;;;;1.90;0.80;;;7.20;17.30;;;;;;5011803;28;20179;-69
2024/02/12 04:45:34;;;;;;;2.17;1.03;;;7.20;17.30;;;;;;5011870;28;20193;-70
2024/02/12 04:48:00;;;;;;;2.03;0.80;;;7.20;18.80;;;;;;5011308;28;20452;-70
2024/02/12 04:50:25;;;;;;;1.60;0.80;;;7.20;19.60;;;;;;4994180;28;20663;-70
2024/02/12 04:52:51;;;;;;;2.63;1.33;;;7.00;21.40;;;;;;5011739;28;20182;-71
2024/02/12 04:55:17;;;;;;;2.33;0.60;;;7.10;21.50;;;;;;5011713;28;20188;-70
2024/02/12 04:57:42;;;;;;;1.90;0.90;;;7.00;21.70;;;;;;5011428;28;20657;-70
2024/02/12 05:00:12;;;;;;;1.87;0.83;;;7.00;21.60;;;;;;5011321;28;20205;-69
2024/02/12 05:02:40;;;;;;;2.17;0.97;;;6.90;22.30;;;;;;4994314;28;20329;-70
2024/02/12 05:05:06;;;;;;;2.20;0.80;;;6.80;20.70;;;;;;5014733;28;20415;-70
2024/02/12 05:07:32;;;;;;;1.60;0.63;;;6.70;21.20;;;;;;5015014;28;20945;-69
2024/02/12 05:09:58;;;;;;;1.70;0.80;;;6.80;21.30;;;;;;5015067;28;20825;-69
2024/02/12 05:12:24;;;;;;;1.70;0.93;;;6.80;21.30;;;;;;5013931;28;20506;-69
2024/02/12 05:14:50;;;;;;;2.30;0.90;;;6.70;21.20;;;;;;5015779;28;20919;-70
2024/02/12 05:17:23;;;;;;;2.33;1.07;;;6.70;20.40;;;;;;5014693;28;20201;-71
2024/02/12 05:22:33;;;;;;;2.27;1.23;;;6.50;21.60;;;;;;5015153;28;20425;-70
2024/02/12 05:24:58;;;;;;;2.07;0.90;;;6.50;23.30;;;;;;5014959;28;20789;-70
2024/02/12 05:27:24;;;;;;;1.90;0.90;;;6.50;23.10;;;;;;5014653;28;20197;-70
2024/02/12 05:29:51;;;;;;;5.30;1.30;;;6.50;23.20;;;;;;5014772;28;20210;-70
2024/02/12 05:32:19;;;;;;;1.80;0.80;;;6.40;23.40;;;;;;4997133;28;20470;-70
2024/02/12 05:34:48;;;;;;;1.87;1.00;;;6.40;23.90;;;;;;5014788;28;20928;-70
2024/02/12 05:37:14;;;;;;;1.90;0.90;;;6.40;23.00;;;;;;5014543;28;20424;-70
2024/02/12 05:39:40;;;;;;;2.07;0.83;;;6.40;22.80;;;;;;5014635;28;20456;-70
2024/02/12 05:42:06;;;;;;;2.00;1.17;;;6.40;23.00;;;;;;5014840;28;20169;-70
2024/02/12 05:44:35;;;;;;;1.70;0.83;;;6.40;23.60;;;;;;5014685;28;20733;-69
2024/02/12 05:47:07;;;;;;;1.80;0.93;;;6.40;22.90;;;;;;5014367;28;20584;-69
2024/02/12 05:49:34;;;;;;;1.60;0.80;;;6.40;23.60;;;;;;5014395;28;20421;-69
2024/02/12 05:52:02;;;;;;;1.50;0.67;;;6.50;23.60;;;;;;5014709;28;20428;-70
2024/02/12 05:54:28;;;;;;;1.90;0.80;;;6.50;23.50;;;;;;5014770;28;20457;-69
2024/02/12 05:56:54;;;;;;;2.10;1.07;;;6.50;23.20;;;;;;5014576;28;20585;-69
2024/02/12 05:59:20;;;;;;;2.07;1.20;;;6.60;22.50;;;;;;5014284;28;20455;-70
2024/02/12 06:01:45;;;;;;;1.80;0.70;;;6.70;20.70;;;;;;5014402;28;20176;-70
2024/02/12 06:04:11;;;;;;;1.60;0.70;;;6.70;20.90;;;;;;5014294;28;20178;-68
2024/02/12 06:06:40;;;;;;;1.77;0.80;;;6.60;21.00;;;;;;5014326;28;20312;-70
2024/02/12 06:09:07;;;;;;;2.07;1.23;;;6.60;21.20;;;;;;5013937;28;20200;-69
2024/02/12 06:11:33;;;;;;;2.77;1.70;;;6.70;21.20;;;;;;5013996;28;21016;-69
2024/02/12 06:13:58;;;;;;;2.70;1.50;;;6.70;21.10;;;;;;5013939;28;20475;-69
2024/02/12 06:16:24;;;;;;;2.43;1.30;;;6.70;20.60;;;;;;4996313;28;20181;-69
2024/02/12 06:18:52;;;;;;;2.00;1.00;;;6.70;20.30;;;;;;5013663;28;20180;-69
2024/02/12 06:21:18;;;;;;;2.27;1.50;;;6.70;19.30;;;;;;5013657;28;20565;-69
2024/02/12 06:23:45;;;;;;;6.07;1.90;;;6.70;19.10;;;;;;5013662;28;20424;-69
2024/02/12 06:26:16;;;;;;;2.10;0.90;;;6.70;19.90;;;;;;5013744;28;20177;-68
2024/02/12 06:28:43;;;;;;;2.50;1.50;;;6.80;18.80;;;;;;5013567;28;20420;-71
2024/02/12 06:31:09;;;;;;;2.00;1.07;;;6.80;18.60;;;;;;5013580;28;20416;-69
2024/02/12 06:33:35;;;;;;;2.87;1.10;;;6.80;18.60;;;;;;5013661;28;20417;-70
2024/02/12 06:36:01;;;;;;;2.13;1.20;;;6.80;18.50;;;;;;5013596;28;20424;-72
2024/02/12 06:38:28;;;;;;;2.90;1.10;;;6.90;18.80;;;;;;4995819;28;20690;-70
2024/02/12 06:40:54;;;;;;;1.97;0.80;;;6.80;18.10;;;;;;5013399;28;20487;-69
2024/02/12 06:43:19;;;;;;;2.70;1.20;;;6.80;17.70;;;;;;5013578;28;20411;-70
2024/02/12 06:45:45;;;;;;;1.90;1.07;;;6.90;17.70;;;;;;5013827;28;20424;-71
2024/02/12 06:48:10;;;;;;;5.00;1.00;;;6.90;17.20;;;;;;5013129;28;20219;-70
2024/02/12 06:50:36;;;;;;;1.90;0.90;;;6.90;17.10;;;;;;5015339;28;20214;-71
2024/02/12 06:53:03;;;;;;;2.10;1.03;;;6.90;17.10;;;;;;5013519;28;20184;-69
2024/02/12 06:55:28;;;;;;;2.40;0.80;;;6.80;17.30;;;;;;5013481;28;20196;-68
2024/02/12 06:57:54;;;;;;;2.90;0.90;;;6.80;18.30;;;;;;5012956;28;20528;-68
2024/02/12 07:00:19;;;;;;;3.00;1.30;;;6.80;18.20;;;;;;5013082;28;20364;-69
2024/02/12 07:02:46;;;;;;;1.80;1.10;;;6.70;20.10;;;;;;4995593;28;20179;-69
2024/02/12 07:05:14;;;;;;;2.90;1.50;;;6.70;20.40;;;;;;5013166;28;20178;-69
2024/02/12 07:07:40;;;;;;;3.47;1.03;;;6.80;19.60;;;;;;5012909;28;20498;-69
2024/02/12 07:10:06;;;;;;;2.40;1.07;;;6.90;18.80;;;;;;5012999;28;20513;-69
2024/02/12 07:12:32;;;;;;;2.30;1.10;;;6.90;19.70;;;;;;5013302;28;20204;-67
2024/02/12 07:14:59;;;;;;;2.60;1.13;;;6.90;21.00;;;;;;5013336;28;20795;-68
2024/02/12 07:17:24;;;;;;;2.00;1.20;;;6.90;20.30;;;;;;5013014;28;20516;-70
2024/02/12 07:19:50;;;;;;;4.30;1.97;;;7.00;20.00;;;;;;5012923;28;21009;-69
2024/02/12 07:22:19;;;;;;;3.40;1.87;;;7.10;19.70;;;;;;5013355;28;20653;-69
2024/02/12 07:24:49;;;;;;;2.97;1.67;;;7.10;18.30;;;;;;5012922;28;20413;-69
2024/02/12 07:27:17;;;;;;;2.63;1.67;;;7.10;18.40;;;;;;5012095;28;21027;-69
2024/02/12 07:29:42;;;;;;;2.77;1.87;;;7.20;18.30;;;;;;5012924;28;20408;-70
2024/02/12 07:32:11;;;;;;;2.83;1.60;;;7.20;18.50;;;;;;5012706;28;21000;-70
2024/02/12 07:34:37;;;;;;;3.27;1.80;;;7.30;18.40;;;;;;5012737;28;20537;-68
2024/02/12 07:37:03;;;;;;;3.30;1.80;;;7.40;17.70;;;;;;5012684;28;20956;-69
2024/02/12 07:39:29;;;;;;;3.50;1.57;;;7.50;17.50;;;;;;5012008;28;20465;-68
2024/02/12 07:41:59;;;;;;;3.57;2.10;;;7.60;17.50;;;;;;5012825;28;20190;-69
2024/02/12 07:44:27;;;;;;;4.53;2.30;;;7.80;15.40;;;;;;5013043;28;20207;-68
2024/02/12 07:46:53;;;;;;;3.30;2.50;;;7.80;13.90;;;;;;5007980;28;20458;-70
2024/02/12 07:49:21;;;;;;;2.87;1.73;;;7.90;14.60;;;;;;4991519;28;20434;-68
2024/02/12 07:51:47;;;;;;;2.90;1.90;;;8.10;13.60;;;;;;5028454;28;20173;-67
2024/02/12 07:54:13;;;;;;;2.43;1.53;;;8.10;12.00;;;;;;5028189;28;20413;-68
2024/02/12 07:56:41;;;;;;;2.20;1.13;;;8.10;11.10;;;;;;5027700;28;20672;-69
2024/02/12 07:59:07;;;;;;;7.00;2.00;;;8.10;11.30;;;;;;5027742;28;20420;-67
2024/02/12 08:01:33;;;;;;;2.60;1.50;;;8.20;9.30;;;;;;5028468;28;20456;-68
2024/02/12 08:03:58;;;;;;;4.03;1.80;;;8.10;9.20;;;;;;5027855;28;20661;-68
2024/02/12 08:06:24;;;;;;;3.37;2.13;;;8.10;9.20;;;;;;5028358;28;20204;-68
2024/02/12 08:08:49;;;;;;;3.87;2.43;;;8.20;9.90;;;;;;5027925;28;20186;-69
2024/02/12 08:11:17;;;;;;;2.83;1.50;;;8.20;9.30;;;;;;5027608;28;20183;-68
2024/02/12 08:13:43;;;;;;;3.10;1.70;;;8.10;9.20;;;;;;5028164;28;20186;-68
2024/02/12 08:16:09;;;;;;;2.77;1.70;;;8.30;9.30;;;;;;5028101;28;20424;-69
2024/02/12 08:18:36;;;;;;;2.40;1.30;;;8.20;6.80;;;;;;5006522;28;20985;-69
2024/02/12 08:21:02;;;;;;;3.13;1.50;;;8.20;7.50;;;;;;5008413;28;20274;-68
2024/02/12 08:23:27;;;;;;;3.77;1.70;;;8.40;8.30;;;;;;5008062;28;20427;-70
2024/02/12 08:25:53;;;;;;;2.70;1.60;;;8.80;5.40;;;;;;5005321;28;20925;-69
2024/02/12 08:28:23;;;;;;;2.60;1.73;;;9.00;2.60;;;;;;5007979;28;20342;-70
2024/02/12 08:30:48;;;;;;;7.00;2.03;;;9.20;3.40;;;;;;5015655;28;20552;-70
2024/02/12 08:33:14;;;;;;;4.80;1.00;;;9.30;2.70;;;;;;5009207;28;20497;-70
2024/02/12 08:35:40;;;;;;;3.60;1.50;;;9.10;1.00;;;;;;5007249;28;20184;-70
2024/02/12 08:38:08;;;;;;;2.97;1.70;;;9.00;2.70;;;;;;5009446;28;20446;-68
2024/02/12 08:40:34;;;;;;;4.37;1.97;;;8.90;3.50;;;;;;5012076;28;20206;-70
2024/02/12 08:43:00;;;;;;;4.73;1.77;;;9.00;4.00;;;;;;5008567;28;20913;-70
2024/02/12 08:45:25;;;;;;;2.47;1.20;;;9.00;2.40;;;;;;5012007;28;20434;-70
2024/02/12 08:47:51;;;;;;;4.30;1.23;;;8.90;3.00;;;;;;5013388;28;20691;-70
2024/02/12 08:50:17;;;;;;;3.07;1.30;;;8.90;1.00;;;;;;5011163;28;20196;-70
2024/02/12 08:52:43;;;;;;;3.00;1.97;;;9.00;2.60;;;;;;5012027;28;20195;-70
2024/02/12 08:55:10;;;;;;;3.00;1.33;;;8.80;1.80;;;;;;5010681;28;20429;-70
2024/02/12 08:57:37;;;;;;;2.73;1.40;;;8.70;2.50;;;;;;5003792;28;20613;-70
2024/02/12 09:00:06;;;;;;;2.87;1.67;;;8.60;2.50;;;;;;5008886;28;20471;-73
2024/02/12 09:02:32;;;;;;;2.63;1.10;;;8.60;2.90;;;;;;5011920;28;20483;-69
2024/02/12 09:04:57;;;;;;;5.53;1.50;;;8.60;3.40;;;;;;4993558;28;20843;-70
2024/02/12 09:07:23;;;;;;;3.50;1.43;;;8.50;3.40;;;;;;5011371;28;20289;-70
2024/02/12 09:09:49;;;;;;;2.53;1.53;;;8.50;3.00;;;;;;5011297;28;20203;-70
2024/02/12 09:12:15;;;;;;;4.63;1.83;;;8.50;3.80;;;;;;5010732;28;20472;-69
2024/02/12 09:14:40;;;;;;;2.83;1.50;;;8.60;4.10;;;;;;5011540;28;20183;-70
2024/02/12 09:17:06;;;;;;;5.83;1.90;;;8.60;3.50;;;;;;5011461;28;20214;-70
2024/02/12 09:19:32;;;;;;;3.10;1.87;;;8.60;3.30;;;;;;5010947;28;20207;-70
2024/02/12 09:21:58;;;;;;;5.70;2.47;;;8.60;4.20;;;;;;5011919;28;20187;-70
2024/02/12 09:24:23;;;;;;;3.47;1.77;;;8.90;3.30;;;;;;5011473;28;20430;-70
2024/02/12 09:26:49;;;;;;;3.70;1.83;;;9.10;2.20;;;;;;5010786;28;20204;-70
2024/02/12 09:29:16;;;;;;;4.57;1.83;;;9.30;1.00;;;;;;5012304;28;20270;-70
2024/02/12 09:31:41;;;;;;;2.60;1.47;;;9.40;1.10;;;;;;5011744;28;20176;-69
2024/02/12 09:34:07;;;;;;;4.63;2.27;;;9.40;1.00;;;;;;5003869;28;20446;-69
2024/02/12 09:36:33;;;;;;;4.67;2.00;;;9.40;1.00;;;;;;4995518;28;20187;-69
2024/02/12 09:38:59;;;;;;;2.80;1.80;;;9.60;1.00;;;;;;4995468;28;20674;-70
2024/02/12 09:41:26;;;;;;;4.40;2.20;;;9.80;1.00;;;;;;4995568;28;20782;-69
2024/02/12 09:43:53;;;;;;;2.70;1.27;;;10.10;1.00;;;;;;4998617;28;20429;-69
2024/02/12 09:46:19;;;;;;;2.70;1.70;;;10.00;1.00;;;;;;5011051;28;20763;-69
2024/02/12 09:48:46;;;;;;;3.47;1.73;;;10.00;1.00;;;;;;5014131;28;20466;-69
2024/02/12 09:51:14;;;;;;;4.27;1.73;;;9.90;1.00;;;;;;5012958;28;20431;-69
2024/02/12 09:53:42;;;;;;;2.97;1.20;;;9.90;1.00;;;;;;5015562;28;20789;-69
2024/02/12 09:56:07;;;;;;;2.57;1.43;;;9.80;1.00;;;;;;5014308;28;20445;-69
2024/02/12 09:58:33;;;;;;;7.23;1.80;;;9.80;1.00;;;;;;5014090;28;20443;-69
2024/02/12 10:01:01;;;;;;;2.50;1.50;;;10.00;1.00;;;;;;5014077;28;20222;-69
2024/02/12 10:03:28;;;;;;;4.97;1.30;;;10.10;1.00;;;;;;5011185;28;20274;-68
2024/02/12 10:05:53;;;;;;;2.10;1.20;;;10.00;1.00;;;;;;5014711;28;20510;-70
2024/02/12 10:08:26;;;;;;;1.90;1.10;;;9.80;1.00;;;;;;5015898;28;20997;-70
2024/02/12 10:10:52;;;;;;;2.73;1.43;;;9.70;1.00;;;;;;5012762;28;20329;-69
2024/02/12 10:13:19;;;;;;;2.00;1.10;;;9.80;1.00;;;;;;4992552;28;21051;-68
2024/02/12 10:15:45;;;;;;;3.10;1.10;;;9.50;1.00;;;;;;5009855;28;20218;-69
2024/02/12 10:18:15;;;;;;;2.97;1.60;;;9.60;1.00;;;;;;5009722;28;20466;-68
2024/02/12 10:20:42;;;;;;;2.50;1.27;;;9.70;1.00;;;;;;5010301;28;20451;-68
2024/02/12 10:23:09;;;;;;;2.27;1.40;;;9.70;1.00;;;;;;5009644;28;20419;-70
2024/02/12 10:25:48;;;;;;;2.53;1.20;;;9.70;1.00;;;;;;5009084;28;20982;-69
2024/02/12 10:28:14;;;;;;;1.90;0.90;;;9.90;1.00;;;;;;4989743;28;20475;-68
2024/02/12 10:30:42;;;;;;;4.10;1.60;;;9.90;1.00;;;;;;4990392;28;20450;-68
2024/02/12 10:33:09;;;;;;;4.57;1.50;;;9.90;1.00;;;;;;4990410;28;20776;-68
2024/02/12 10:35:38;;;;;;;2.50;1.33;;;10.10;1.00;;;;;;4989965;28;20420;-69
2024/02/12 10:38:06;;;;;;;2.37;0.90;;;10.10;1.00;;;;;;4991615;28;20870;-67
2024/02/12 10:40:53;;;;;;;2.30;1.20;;;9.80;1.00;;;;;;5009559;28;20462;-69
2024/02/12 10:43:23;;;;;;;6.53;1.80;;;9.60;1.00;;;;;;4992096;28;20418;-70
2024/02/12 10:45:49;;;;;;;2.37;1.10;;;9.40;1.00;;;;;;5013624;28;20438;-69
2024/02/12 10:48:18;;;;;;;3.00;1.30;;;9.50;1.00;;;;;;5013050;28;20454;-69
2024/02/12 10:50:46;;;;;;;2.17;0.90;;;9.80;1.00;;;;;;5012962;28;20623;-69
2024/02/12 10:53:15;;;;;;;3.27;1.10;;;10.30;1.00;;;;;;5013434;28;20510;-68
2024/02/12 10:55:42;;;;;;;2.63;1.70;;;10.50;1.00;;;;;;5013255;28;20902;-69
2024/02/12 10:58:07;;;;;;;2.87;1.10;;;10.90;1.00;;;;;;5013060;28;20442;-69
2024/02/12 11:00:33;;;;;;;1.83;0.87;;;10.70;1.00;;;;;;5013164;28;21000;-70
2024/02/12 11:03:03;;;;;;;1.80;0.70;;;10.90;1.00;;;;;;5013365;28;20226;-69
2024/02/12 11:05:28;;;;;;;3.07;1.40;;;10.80;1.00;;;;;;5013046;28;20427;-70
2024/02/12 11:08:04;;;;;;;4.90;1.87;;;10.80;1.00;;;;;;5012804;28;20438;-70
2024/02/12 11:10:34;;;;;;;2.00;1.00;;;10.80;1.00;;;;;;5013527;28;20189;-72
2024/02/12 11:13:04;;;;;;;1.90;1.30;;;10.70;1.00;;;;;;5013679;28;20469;-71
2024/02/12 11:15:29;;;;;;;3.03;1.17;;;10.60;1.00;;;;;;4994024;28;20432;-71
2024/02/12 11:17:55;;;;;;;3.33;1.17;;;10.80;1.00;;;;;;4992764;28;20435;-70
2024/02/12 11:20:28;;;;;;;2.20;1.00;;;10.70;1.00;;;;;;4993892;28;20287;-69
2024/02/12 11:23:04;;;;;;;2.83;1.20;;;10.70;1.00;;;;;;5012015;28;20554;-70
2024/02/12 11:25:31;;;;;;;3.50;1.50;;;10.80;1.00;;;;;;5007675;28;20492;-70
2024/02/12 11:28:00;;;;;;;2.20;0.93;;;10.90;1.00;;;;;;5012392;28;20816;-70
2024/02/12 11:30:26;;;;;;;1.80;0.93;;;11.20;1.00;;;;;;5012228;28;20426;-69
2024/02/12 11:32:57;;;;;;;2.00;1.00;;;11.30;1.00;;;;;;5012891;28;20768;-69
2024/02/12 11:35:23;;;;;;;2.10;0.97;;;11.30;1.00;;;;;;5012604;28;20186;-70
2024/02/12 11:37:56;;;;;;;2.87;1.60;;;11.30;1.00;;;;;;5011984;28;20536;-69
2024/02/12 11:40:22;;;;;;;4.77;1.17;;;11.30;1.00;;;;;;5012458;28;20216;-70
2024/02/12 11:42:52;;;;;;;2.00;1.10;;;11.40;1.00;;;;;;5012277;28;20903;-70
2024/02/12 11:45:18;;;;;;;5.30;1.40;;;11.30;1.00;;;;;;5012346;28;20499;-71
2024/02/12 11:47:46;;;;;;;2.57;1.10;;;11.30;1.00;;;;;;5011845;28;20448;-72
2024/02/12 11:50:25;;;;;;;2.30;1.20;;;11.40;1.00;;;;;;5012197;28;20429;-71
2024/02/12 11:52:55;;;;;;;2.43;1.40;;;11.40;1.00;;;;;;5012211;28;20465;-70
2024/02/12 11:55:21;;;;;;;2.00;1.00;;;11.20;1.00;;;;;;5012112;28;20410;-70
2024/02/12 11:57:47;;;;;;;2.03;0.90;;;11.10;1.00;;;;;;5012228;28;20967;-71
2024/02/12 12:00:19;;;;;;;1.73;0.90;;;11.00;1.00;;;;;;5011832;28;20204;-71
2024/02/12 12:02:52;;;;;;;2.83;1.20;;;11.10;1.00;;;;;;5012154;28;20503;-71
2024/02/12 12:05:27;;;;;;;2.20;1.10;;;11.00;1.00;;;;;;5012097;28;20409;-71
2024/02/12 12:07:58;;;;;;;1.93;1.03;;;11.20;1.00;;;;;;4994052;28;20486;-71
2024/02/12 12:10:26;;;;;;;2.40;1.30;;;11.10;1.00;;;;;;5012024;28;20412;-72
2024/02/12 12:12:53;;;;;;;2.30;1.20;;;10.90;1.00;;;;;;5011631;28;20423;-71
2024/02/12 12:15:19;;;;;;;2.30;0.97;;;10.80;1.00;;;;;;5011804;28;20531;-70
2024/02/12 12:17:46;;;;;;;2.10;1.27;;;10.70;1.00;;;;;;5011759;28;20467;-70
2024/02/12 12:20:12;;;;;;;3.30;1.23;;;10.90;1.00;;;;;;5011698;28;20524;-69
2024/02/12 12:22:42;;;;;;;3.40;1.40;;;10.90;1.00;;;;;;5012089;28;20779;-69
2024/02/12 12:25:09;;;;;;;2.03;1.00;;;10.80;1.00;;;;;;4993922;28;20787;-69
2024/02/12 12:27:37;;;;;;;2.43;1.13;;;10.80;1.00;;;;;;5011405;28;20437;-69
2024/02/12 12:30:16;;;;;;;3.20;1.20;;;10.90;1.00;;;;;;5011627;28;20451;-69
2024/02/12 12:32:43;;;;;;;2.20;1.00;;;10.70;1.00;;;;;;5011929;28;20770;-70
2024/02/12 12:35:09;;;;;;;2.07;0.80;;;10.40;1.00;;;;;;4994069;28;20430;-70
2024/02/12 12:37:38;;;;;;;1.83;0.97;;;10.50;1.00;;;;;;5011590;28;20443;-69
2024/02/12 12:40:08;;;;;;;2.20;1.23;;;10.50;1.00;;;;;;5011737;28;20958;-69
2024/02/12 12:42:43;;;;;;;2.97;0.83;;;10.60;1.00;;;;;;5012068;28;20791;-69
2024/02/12 12:45:10;;;;;;;2.80;0.97;;;10.80;1.00;;;;;;4994073;28;20426;-69
2024/02/12 12:47:39;;;;;;;3.07;1.17;;;10.40;1.00;;;;;;5011146;28;20443;-70
2024/02/12 12:50:08;;;;;;;2.20;0.90;;;10.40;1.00;;;;;;5011588;28;20415;-69
2024/02/12 12:52:38;;;;;;;2.13;1.10;;;10.40;1.00;;;;;;5011348;28;20454;-69
2024/02/12 12:55:21;;;;;;;2.30;1.00;;;10.60;1.00;;;;;;5011298;28;20449;-70
2024/02/12 12:57:49;;;;;;;3.60;1.37;;;10.60;1.00;;;;;;5011284;28;20487;-70
2024/02/12 13:00:28;;;;;;;1.70;0.80;;;10.80;1.00;;;;;;5011510;28;20469;-76
2024/02/12 13:02:58;;;;;;;2.10;1.00;;;10.90;1.00;;;;;;5011603;28;20454;-70
2024/02/12 13:05:25;;;;;;;2.27;1.07;;;11.00;1.00;;;;;;5003282;28;20854;-70
2024/02/12 13:07:51;;;;;;;1.90;1.00;;;10.80;1.00;;;;;;5010981;28;20431;-69
2024/02/12 13:10:17;;;;;;;2.17;1.13;;;11.10;1.00;;;;;;5011198;28;20866;-70
2024/02/12 13:12:44;;;;;;;2.67;0.80;;;10.80;1.00;;;;;;5011471;28;20419;-70
2024/02/12 13:15:10;;;;;;;2.97;1.80;;;10.80;1.00;;;;;;5011524;28;20188;-70
2024/02/12 13:17:37;;;;;;;2.17;1.20;;;10.80;1.00;;;;;;5011149;28;20995;-69